createdAt,value
2019-03-29T00:02:17.439Z,100450.34
2019-03-29T00:05:31.587Z,100452.03
2019-03-29T00:08:45.591Z,100451.14
2019-03-29T00:11:59.593Z,100452.20
2019-03-29T00:15:13.709Z,100453.47
2019-03-29T00:18:28.106Z,100457.16
2019-03-29T00:21:42.396Z,100468.26
2019-03-29T00:24:56.412Z,100462.48
2019-03-29T00:28:11.088Z,100455.24
2019-03-29T00:31:25.475Z,100458.73
2019-03-29T00:34:39.599Z,100455.77
2019-03-29T00:37:55.763Z,100458.15
2019-03-29T00:41:09.953Z,100465.94
2019-03-29T00:44:23.972Z,100457.41
2019-03-29T00:47:38.451Z,100456.44
2019-03-29T00:50:52.471Z,100453.17
2019-03-29T00:54:06.499Z,100449.29
2019-03-29T00:57:20.499Z,100451.31
2019-03-29T01:00:34.699Z,100442.94
2019-03-29T01:03:48.819Z,100433.83
2019-03-29T01:07:02.939Z,100443.60
2019-03-29T01:10:17.226Z,100437.72
2019-03-29T01:13:31.375Z,100433.37
2019-03-29T01:16:45.403Z,100428.30
2019-03-29T01:19:59.433Z,100432.26
2019-03-29T01:23:13.471Z,100432.05
2019-03-29T01:26:27.769Z,100426.14
2019-03-29T01:29:42.109Z,100424.08
2019-03-29T01:32:56.112Z,100423.77
2019-03-29T01:36:10.240Z,100424.07
2019-03-29T01:39:24.255Z,100424.64
2019-03-29T01:42:38.254Z,100425.03
2019-03-29T01:45:52.482Z,100418.53
2019-03-29T01:49:06.498Z,100422.57
2019-03-29T01:52:20.508Z,100425.27
2019-03-29T01:55:34.530Z,100423.09
2019-03-29T01:58:48.651Z,100417.49
2019-03-29T02:02:03.196Z,100409.67
2019-03-29T02:05:17.204Z,100408.77
2019-03-29T02:08:35.930Z,100409.80
2019-03-29T02:11:47.247Z,100411.23
2019-03-29T02:15:01.362Z,100403.69
2019-03-29T02:18:15.534Z,100407.10
2019-03-29T02:21:29.656Z,100403.75
2019-03-29T02:24:43.660Z,100402.27
2019-03-29T02:27:57.920Z,100402.42
2019-03-29T02:31:12.436Z,100400.02
2019-03-29T02:34:26.792Z,100400.59
2019-03-29T02:37:40.863Z,100398.59
2019-03-29T02:40:54.890Z,100401.80
2019-03-29T02:44:09.143Z,100400.66
2019-03-29T02:47:23.556Z,100398.96
2019-03-29T02:50:38.017Z,100392.92
2019-03-29T02:53:52.048Z,100393.71
2019-03-29T02:57:06.061Z,100396.61
2019-03-29T03:00:20.275Z,100402.19
2019-03-29T03:03:34.402Z,100396.03
2019-03-29T03:06:48.410Z,100397.52
2019-03-29T03:10:03.318Z,100392.44
2019-03-29T03:13:17.336Z,100387.06
2019-03-29T03:16:31.472Z,100392.70
2019-03-29T03:19:45.783Z,100390.02
2019-03-29T03:23:00.158Z,100383.89
2019-03-29T03:26:14.420Z,100385.91
2019-03-29T03:29:28.431Z,100385.34
2019-03-29T03:32:42.497Z,100392.94
2019-03-29T03:35:56.706Z,100394.94
2019-03-29T03:39:10.939Z,100400.16
2019-03-29T03:42:25.348Z,100406.00
2019-03-29T03:45:39.595Z,100401.08
2019-03-29T03:48:53.726Z,100402.84
2019-03-29T03:52:07.938Z,100396.52
2019-03-29T03:55:22.602Z,100396.16
2019-03-29T03:58:37.809Z,100396.45
2019-03-29T04:01:52.085Z,100396.59
2019-03-29T04:05:06.612Z,100390.73
2019-03-29T04:08:20.855Z,100389.79
2019-03-29T04:11:35.272Z,100384.91
2019-03-29T04:14:49.404Z,100385.95
2019-03-29T04:18:03.759Z,100383.39
2019-03-29T04:21:18.414Z,100379.80
2019-03-29T04:24:32.423Z,100385.02
2019-03-29T04:27:46.429Z,100391.85
2019-03-29T04:31:00.455Z,100384.91
2019-03-29T04:34:14.907Z,100386.56
2019-03-29T04:37:28.904Z,100379.21
2019-03-29T04:40:42.933Z,100379.61
2019-03-29T04:43:56.952Z,100380.02
2019-03-29T04:47:10.957Z,100383.77
2019-03-29T04:50:24.978Z,100371.30
2019-03-29T04:53:39.020Z,100377.48
2019-03-29T04:56:53.023Z,100376.22
2019-03-29T05:00:07.839Z,100377.77
2019-03-29T05:03:21.865Z,100373.56
2019-03-29T05:06:35.972Z,100374.69
2019-03-29T05:09:49.986Z,100374.69
2019-03-29T05:13:04.008Z,100374.55
2019-03-29T05:16:18.006Z,100374.26
2019-03-29T05:19:32.292Z,100378.60
2019-03-29T05:22:47.088Z,100382.41
2019-03-29T05:26:01.108Z,100381.31
2019-03-29T05:29:15.155Z,100387.89
2019-03-29T05:32:29.287Z,100383.95
2019-03-29T05:35:43.381Z,100382.33
2019-03-29T05:38:57.440Z,100386.70
2019-03-29T05:42:11.762Z,100391.88
2019-03-29T05:45:26.095Z,100393.97
2019-03-29T05:48:40.351Z,100392.96
2019-03-29T05:51:54.367Z,100393.54
2019-03-29T05:55:08.607Z,100392.39
2019-03-29T05:58:22.896Z,100394.98
2019-03-29T06:01:37.294Z,100392.27
2019-03-29T06:04:51.711Z,100393.20
2019-03-29T06:08:05.720Z,100390.42
2019-03-29T06:11:19.706Z,100388.30
2019-03-29T06:14:34.362Z,100377.70
2019-03-29T06:17:49.258Z,100378.94
2019-03-29T06:21:03.905Z,100375.42
2019-03-29T06:24:18.536Z,100383.92
2019-03-29T06:27:32.866Z,100378.64
2019-03-29T06:30:47.350Z,100379.83
2019-03-29T06:34:01.850Z,100373.28
2019-03-29T06:37:17.649Z,100377.08
2019-03-29T06:40:31.682Z,100372.90
2019-03-29T06:43:46.021Z,100373.63
2019-03-29T06:47:00.332Z,100369.31
2019-03-29T06:50:14.475Z,100369.48
2019-03-29T06:53:28.758Z,100365.46
2019-03-29T06:56:43.183Z,100364.30
2019-03-29T06:59:57.522Z,100355.18
2019-03-29T07:03:11.973Z,100360.13
2019-03-29T07:06:26.427Z,100361.38
2019-03-29T07:09:40.435Z,100358.27
2019-03-29T07:12:56.601Z,100354.98
2019-03-29T07:16:10.696Z,100353.53
2019-03-29T07:19:25.032Z,100346.22
2019-03-29T07:22:39.156Z,100343.44
2019-03-29T07:25:56.234Z,100335.55
2019-03-29T07:29:10.304Z,100332.31
2019-03-29T07:32:24.791Z,100320.20
2019-03-29T07:35:39.181Z,100317.27
2019-03-29T07:38:53.688Z,100320.38
2019-03-29T07:42:08.054Z,100316.86
2019-03-29T07:45:22.240Z,100316.22
2019-03-29T07:48:40.382Z,100307.84
2019-03-29T07:51:55.281Z,100307.70
2019-03-29T07:55:10.667Z,100304.92
2019-03-29T07:58:26.880Z,100296.93
2019-03-29T08:01:43.261Z,100295.31
2019-03-29T08:04:59.675Z,100294.13
2019-03-29T08:08:24.149Z,100288.30
2019-03-29T08:11:46.190Z,100280.53
2019-03-29T08:14:53.637Z,100278.41
2019-03-29T08:18:07.978Z,100276.28
2019-03-29T08:21:22.433Z,100276.21
2019-03-29T08:24:36.468Z,100270.63
2019-03-29T08:27:50.602Z,100266.27
2019-03-29T08:31:04.727Z,100264.95
2019-03-29T08:34:19.110Z,100266.60
2019-03-29T08:37:33.895Z,100264.03
2019-03-29T08:40:48.228Z,100272.03
2019-03-29T08:44:02.452Z,100258.09
2019-03-29T08:47:16.587Z,100253.45
2019-03-29T08:50:32.910Z,100261.17
2019-03-29T08:53:46.964Z,100270.40
2019-03-29T08:57:00.969Z,100257.98
2019-03-29T09:00:22.177Z,100252.89
2019-03-29T09:03:36.685Z,100249.73
2019-03-29T09:06:53.695Z,100251.50
2019-03-29T09:10:17.833Z,100246.53
2019-03-29T09:13:32.168Z,100241.90
2019-03-29T09:16:46.831Z,100242.61
2019-03-29T09:20:00.856Z,100235.81
2019-03-29T09:26:42.155Z,100224.45
2019-03-29T09:29:56.191Z,100233.45
2019-03-29T09:33:10.748Z,100227.98
2019-03-29T09:36:25.165Z,100230.11
2019-03-29T09:39:39.239Z,100226.39
2019-03-29T09:43:06.698Z,100228.92
2019-03-29T09:46:09.953Z,100229.02
2019-03-29T09:49:24.196Z,100220.20
2019-03-29T09:52:38.497Z,100214.94
2019-03-29T09:55:53.542Z,100213.56
2019-03-29T09:59:08.373Z,100214.42
2019-03-29T10:02:22.587Z,100208.20
2019-03-29T10:05:37.125Z,100201.98
2019-03-29T10:08:53.352Z,100203.05
2019-03-29T10:12:07.721Z,100211.98
2019-03-29T10:15:22.057Z,100214.30
2019-03-29T10:18:36.390Z,100217.59
2019-03-29T10:21:51.095Z,100205.81
2019-03-29T10:25:18.399Z,100202.59
2019-03-29T10:28:21.925Z,100190.94
2019-03-29T10:31:36.462Z,100202.73
2019-03-29T10:34:51.595Z,100192.11
2019-03-29T10:38:05.832Z,100180.53
2019-03-29T10:41:22.811Z,100175.47
2019-03-29T10:44:36.107Z,100169.72
2019-03-29T10:47:50.448Z,100170.94
2019-03-29T10:51:08.216Z,100162.81
2019-03-29T10:54:21.513Z,100161.94
2019-03-29T10:57:36.868Z,100156.02
2019-03-29T11:00:51.445Z,100151.63
2019-03-29T11:04:05.956Z,100150.26
2019-03-29T11:07:20.200Z,100141.17
2019-03-29T11:10:35.787Z,100137.16
2019-03-29T11:13:50.559Z,100126.44
2019-03-29T11:17:05.396Z,100111.17
2019-03-29T11:20:20.173Z,100118.09
2019-03-29T11:23:34.532Z,100116.41
2019-03-29T11:26:50.815Z,100117.00
2019-03-29T11:30:09.592Z,100108.15
2019-03-29T11:33:25.386Z,100110.38
2019-03-29T11:36:42.975Z,100108.71
2019-03-29T11:39:58.008Z,100107.90
2019-03-29T11:43:26.559Z,100104.34
2019-03-29T11:46:34.675Z,100106.38
2019-03-29T11:49:52.775Z,100101.57
2019-03-29T11:53:08.559Z,100099.86
2019-03-29T11:56:22.800Z,100091.33
2019-03-29T11:59:40.061Z,100087.20
2019-03-29T12:02:53.056Z,100079.46
2019-03-29T12:06:07.281Z,100077.09
2019-03-29T12:09:21.401Z,100083.49
2019-03-29T12:12:35.654Z,100078.14
2019-03-29T12:15:49.764Z,100071.89
2019-03-29T12:19:03.924Z,100067.19
2019-03-29T12:22:18.047Z,100063.78
2019-03-29T12:25:32.068Z,100051.81
2019-03-29T12:28:46.400Z,100044.84
2019-03-29T12:32:00.536Z,100040.59
2019-03-29T12:35:14.614Z,100026.63
2019-03-29T12:38:28.894Z,100020.06
2019-03-29T12:41:42.957Z,100027.67
2019-03-29T12:44:58.383Z,100025.05
2019-03-29T12:48:12.555Z,100016.12
2019-03-29T12:51:26.625Z,100004.38
2019-03-29T12:54:40.703Z,100002.54
2019-03-29T12:57:54.754Z,100010.59
2019-03-29T13:01:09.120Z,100001.09
2019-03-29T13:04:23.173Z,100008.91
2019-03-29T13:07:37.246Z,100004.77
2019-03-29T13:10:52.137Z,99991.61
2019-03-29T13:14:10.590Z,99991.20
2019-03-29T13:17:22.513Z,99997.67
2019-03-29T13:20:36.798Z,99984.20
2019-03-29T13:23:50.941Z,99977.72
2019-03-29T13:27:04.998Z,99971.20
2019-03-29T13:30:19.383Z,99969.70
2019-03-29T13:33:34.121Z,99952.12
2019-03-29T13:36:49.133Z,99942.84
2019-03-29T13:40:05.432Z,99945.33
2019-03-29T13:43:19.762Z,99943.33
2019-03-29T13:46:34.107Z,99932.02
2019-03-29T13:49:48.294Z,99929.83
2019-03-29T13:53:02.577Z,99923.09
2019-03-29T13:56:16.897Z,99919.73
2019-03-29T13:59:31.901Z,99916.91
2019-03-29T14:02:46.791Z,99906.34
2019-03-29T14:06:01.065Z,99904.48
2019-03-29T14:09:15.192Z,99896.98
2019-03-29T14:12:29.321Z,99900.39
2019-03-29T14:15:43.804Z,99897.27
2019-03-29T14:18:58.549Z,99892.80
2019-03-29T14:22:13.286Z,99893.33
2019-03-29T14:25:27.848Z,99892.84
2019-03-29T14:28:42.333Z,99885.28
2019-03-29T14:31:56.783Z,99878.19
2019-03-29T14:35:11.411Z,99870.13
2019-03-29T14:38:26.064Z,99861.70
2019-03-29T14:41:40.339Z,99862.73
2019-03-29T14:44:54.491Z,99860.12
2019-03-29T14:48:08.677Z,99860.95
2019-03-29T14:51:22.784Z,99856.66
2019-03-29T14:54:37.126Z,99846.98
2019-03-29T14:57:51.296Z,99840.80
2019-03-29T15:01:05.600Z,99837.42
2019-03-29T15:04:20.050Z,99836.17
2019-03-29T15:07:37.445Z,99824.45
2019-03-29T15:10:52.274Z,99827.77
2019-03-29T15:14:06.596Z,99815.88
2019-03-29T15:17:21.660Z,99809.61
2019-03-29T15:20:36.457Z,99806.86
2019-03-29T15:23:51.000Z,99808.66
2019-03-29T15:27:06.385Z,99813.46
2019-03-29T15:30:20.860Z,99806.48
2019-03-29T15:33:34.905Z,99802.22
2019-03-29T15:36:49.198Z,99800.61
2019-03-29T15:40:03.871Z,99796.11
2019-03-29T15:43:18.548Z,99797.54
2019-03-29T15:46:33.246Z,99793.52
2019-03-29T15:49:55.735Z,99794.76
2019-03-29T15:53:04.502Z,99789.19
2019-03-29T15:56:18.822Z,99783.33
2019-03-29T15:59:33.195Z,99788.06
2019-03-29T16:02:47.460Z,99788.75
2019-03-29T16:06:02.080Z,99790.00
2019-03-29T16:09:16.584Z,99778.80
2019-03-29T16:12:30.725Z,99780.67
2019-03-29T16:15:44.739Z,99777.83
2019-03-29T16:18:58.750Z,99785.80
2019-03-29T16:22:13.415Z,99783.30
2019-03-29T16:25:27.676Z,99779.85
2019-03-29T16:28:41.980Z,99774.98
2019-03-29T16:31:55.982Z,99776.80
2019-03-29T16:35:10.494Z,99774.13
2019-03-29T16:38:24.519Z,99774.17
2019-03-29T16:41:38.628Z,99767.81
2019-03-29T16:44:52.757Z,99774.34
2019-03-29T16:48:07.152Z,99771.89
2019-03-29T16:51:21.224Z,99771.42
2019-03-29T16:54:35.518Z,99766.99
2019-03-29T16:57:49.551Z,99771.73
2019-03-29T17:01:04.010Z,99766.53
2019-03-29T17:04:18.703Z,99771.00
2019-03-29T17:07:33.195Z,99769.64
2019-03-29T17:10:47.260Z,99768.13
2019-03-29T17:14:01.673Z,99773.60
2019-03-29T17:17:16.495Z,99770.70
2019-03-29T17:20:30.901Z,99768.02
2019-03-29T17:23:45.263Z,99770.52
2019-03-29T17:26:59.581Z,99773.84
2019-03-29T17:30:16.615Z,99779.81
2019-03-29T17:33:31.439Z,99788.36
2019-03-29T17:36:45.578Z,99786.38
2019-03-29T17:39:59.604Z,99782.52
2019-03-29T17:43:14.145Z,99788.22
2019-03-29T17:46:28.630Z,99788.84
2019-03-29T17:49:42.645Z,99789.23
2019-03-29T17:52:56.651Z,99791.45
2019-03-29T17:56:11.001Z,99790.22
2019-03-29T17:59:25.031Z,99795.52
2019-03-29T18:02:39.145Z,99805.85
2019-03-29T18:05:53.400Z,99814.66
2019-03-29T18:09:07.708Z,99815.41
2019-03-29T18:12:21.745Z,99810.93
2019-03-29T18:15:35.954Z,99818.05
2019-03-29T18:18:50.067Z,99813.55
2019-03-29T18:22:04.743Z,99818.10
2019-03-29T18:25:19.056Z,99813.19
2019-03-29T18:28:33.280Z,99817.96
2019-03-29T18:31:47.666Z,99817.28
2019-03-29T18:35:02.166Z,99820.98
2019-03-29T18:38:16.507Z,99821.92
2019-03-29T18:41:31.192Z,99828.34
2019-03-29T18:44:45.500Z,99823.98
2019-03-29T18:47:59.630Z,99826.30
2019-03-29T18:51:13.941Z,99828.55
2019-03-29T18:54:28.279Z,99827.31
2019-03-29T18:57:42.472Z,99833.84
2019-03-29T19:00:56.607Z,99835.14
2019-03-29T19:04:10.727Z,99836.45
2019-03-29T19:07:28.437Z,99831.97
2019-03-29T19:10:42.539Z,99838.17
2019-03-29T19:13:56.565Z,99838.66
2019-03-29T19:17:10.812Z,99832.80
2019-03-29T19:20:27.790Z,99835.13
2019-03-29T19:23:40.852Z,99832.17
2019-03-29T19:26:55.342Z,99824.41
2019-03-29T19:30:10.129Z,99824.80
2019-03-29T19:33:24.159Z,99826.00
2019-03-29T19:36:38.430Z,99824.16
2019-03-29T19:39:53.091Z,99830.58
2019-03-29T19:43:07.192Z,99822.05
2019-03-29T19:46:21.816Z,99823.94
2019-03-29T19:49:36.435Z,99836.95
2019-03-29T19:52:50.790Z,99830.42
2019-03-29T19:56:05.026Z,99825.17
2019-03-29T19:59:19.050Z,99824.36
2019-03-29T20:02:33.224Z,99818.66
2019-03-29T20:05:50.936Z,99824.30
2019-03-29T20:09:07.668Z,99825.86
2019-03-29T20:12:25.013Z,99823.69
2019-03-29T20:15:38.406Z,99822.34
2019-03-29T20:18:52.426Z,99828.59
2019-03-29T20:22:06.712Z,99821.88
2019-03-29T20:25:20.851Z,99827.27
2019-03-29T20:28:35.545Z,99825.30
2019-03-29T20:31:50.676Z,99822.39
2019-03-29T20:35:05.087Z,99816.21
2019-03-29T20:38:19.124Z,99820.32
2019-03-29T20:41:33.491Z,99818.70
2019-03-29T20:44:47.515Z,99814.02
2019-03-29T20:48:01.649Z,99819.76
2019-03-29T20:51:15.650Z,99827.00
2019-03-29T20:54:30.016Z,99827.84
2019-03-29T20:57:44.394Z,99829.14
2019-03-29T21:00:58.539Z,99830.64
2019-03-29T21:04:12.872Z,99830.70
2019-03-29T21:07:27.267Z,99826.98
2019-03-29T21:10:54.529Z,99829.88
2019-03-29T21:13:57.212Z,99822.45
2019-03-29T21:17:11.223Z,99824.50
2019-03-29T21:20:25.462Z,99829.12
2019-03-29T21:23:40.434Z,99821.22
2019-03-29T21:26:55.283Z,99818.49
2019-03-29T21:30:10.338Z,99813.13
2019-03-29T21:33:24.703Z,99815.00
2019-03-29T21:36:39.281Z,99813.58
2019-03-29T21:39:53.612Z,99805.44
2019-03-29T21:43:08.749Z,99812.31
2019-03-29T21:46:23.261Z,99806.48
2019-03-29T21:49:38.633Z,99803.74
2019-03-29T21:52:52.977Z,99803.68
2019-03-29T21:56:07.879Z,99805.39
2019-03-29T21:59:25.061Z,99809.95
2019-03-29T22:02:38.043Z,99800.90
2019-03-29T22:05:52.630Z,99797.82
2019-03-29T22:09:09.978Z,99790.78
2019-03-29T22:12:24.776Z,99785.52
2019-03-29T22:15:38.904Z,99790.09
2019-03-29T22:18:52.926Z,99788.81
2019-03-29T22:22:08.003Z,99782.30
2019-03-29T22:25:22.016Z,99779.17
2019-03-29T22:28:36.220Z,99773.00
2019-03-29T22:31:50.339Z,99784.30
2019-03-29T22:35:05.571Z,99769.61
2019-03-29T22:38:19.690Z,99766.67
2019-03-29T22:41:34.185Z,99766.33
2019-03-29T22:44:48.335Z,99773.60
2019-03-29T22:48:02.717Z,99770.73
2019-03-29T22:51:17.192Z,99770.00
2019-03-29T22:54:31.505Z,99774.73
2019-03-29T22:57:45.694Z,99775.45
2019-03-29T23:01:01.935Z,99772.03
2019-03-29T23:04:15.967Z,99767.16
2019-03-29T23:07:29.972Z,99767.14
2019-03-29T23:10:44.100Z,99765.72
2019-03-29T23:13:58.360Z,99764.43
2019-03-29T23:17:12.395Z,99761.17
2019-03-29T23:20:26.680Z,99761.34
2019-03-29T23:23:41.044Z,99759.73
2019-03-29T23:26:55.169Z,99756.63
2019-03-29T23:30:09.706Z,99749.94
2019-03-29T23:33:23.841Z,99743.58
2019-03-29T23:36:38.148Z,99744.14
2019-03-29T23:39:52.172Z,99741.60
2019-03-29T23:43:06.296Z,99735.44
2019-03-29T23:46:20.337Z,99740.32
2019-03-29T23:49:34.351Z,99736.50
2019-03-29T23:52:48.589Z,99734.14
2019-03-29T23:56:02.831Z,99740.13
2019-03-29T23:59:17.110Z,99726.91
